sensor_id;sensor_type;location;lat;lon;timestamp;P1;durP1;ratioP1;P2;durP2;ratioP2
31990;SDS011;18508;49.386;8.370;2023-01-13T00:02:20;2.38;;;0.80;;
31990;SDS011;18508;49.386;8.370;2023-01-13T00:04:49;3.67;;;0.80;;
31990;SDS011;18508;49.386;8.370;2023-01-13T00:07:19;3.47;;;0.80;;
31990;SDS011;18508;49.386;8.370;2023-01-13T00:09:50;2.92;;;0.60;;
31990;SDS011;18508;49.386;8.370;2023-01-13T00:14:53;2.17;;;0.50;;
31990;SDS011;18508;49.386;8.370;2023-01-13T00:17:21;5.93;;;1.48;;
31990;SDS011;18508;49.386;8.370;2023-01-13T00:19:51;3.20;;;0.68;;
31990;SDS011;18508;49.386;8.370;2023-01-13T00:22:21;1.33;;;0.60;;
31990;SDS011;18508;49.386;8.370;2023-01-13T00:24:52;1.67;;;0.63;;
31990;SDS011;18508;49.386;8.370;2023-01-13T00:27:25;2.35;;;0.75;;
31990;SDS011;18508;49.386;8.370;2023-01-13T00:29:53;2.00;;;0.60;;
31990;SDS011;18508;49.386;8.370;2023-01-13T00:32:21;1.35;;;0.75;;
31990;SDS011;18508;49.386;8.370;2023-01-13T00:34:51;3.47;;;0.90;;
31990;SDS011;18508;49.386;8.370;2023-01-13T00:37:19;1.88;;;0.80;;
31990;SDS011;18508;49.386;8.370;2023-01-13T00:39:49;2.53;;;0.88;;
31990;SDS011;18508;49.386;8.370;2023-01-13T00:42:24;1.85;;;0.80;;
31990;SDS011;18508;49.386;8.370;2023-01-13T00:45:11;5.55;;;1.15;;
31990;SDS011;18508;49.386;8.370;2023-01-13T00:47:39;3.05;;;0.77;;
31990;SDS011;18508;49.386;8.370;2023-01-13T00:50:10;2.50;;;0.88;;
31990;SDS011;18508;49.386;8.370;2023-01-13T00:52:38;6.18;;;0.80;;
31990;SDS011;18508;49.386;8.370;2023-01-13T00:55:07;2.47;;;0.93;;
31990;SDS011;18508;49.386;8.370;2023-01-13T00:57:40;1.77;;;0.52;;
31990;SDS011;18508;49.386;8.370;2023-01-13T01:00:13;1.30;;;0.50;;
31990;SDS011;18508;49.386;8.370;2023-01-13T01:02:41;2.90;;;0.40;;
31990;SDS011;18508;49.386;8.370;2023-01-13T01:05:17;1.48;;;0.50;;
31990;SDS011;18508;49.386;8.370;2023-01-13T01:07:46;1.73;;;0.65;;
31990;SDS011;18508;49.386;8.370;2023-01-13T01:10:17;3.00;;;0.75;;
31990;SDS011;18508;49.386;8.370;2023-01-13T01:12:46;2.10;;;0.70;;
31990;SDS011;18508;49.386;8.370;2023-01-13T01:15:18;2.95;;;0.70;;
31990;SDS011;18508;49.386;8.370;2023-01-13T01:17:46;4.45;;;0.75;;
31990;SDS011;18508;49.386;8.370;2023-01-13T01:20:15;2.30;;;0.60;;
31990;SDS011;18508;49.386;8.370;2023-01-13T01:22:44;3.42;;;0.70;;
31990;SDS011;18508;49.386;8.370;2023-01-13T01:25:12;1.83;;;0.80;;
31990;SDS011;18508;49.386;8.370;2023-01-13T01:27:41;1.88;;;0.60;;
31990;SDS011;18508;49.386;8.370;2023-01-13T01:30:12;3.15;;;0.68;;
31990;SDS011;18508;49.386;8.370;2023-01-13T01:32:41;1.45;;;0.57;;
31990;SDS011;18508;49.386;8.370;2023-01-13T01:35:09;2.67;;;0.50;;
31990;SDS011;18508;49.386;8.370;2023-01-13T01:37:40;2.30;;;0.80;;
31990;SDS011;18508;49.386;8.370;2023-01-13T01:40:10;8.63;;;0.90;;
31990;SDS011;18508;49.386;8.370;2023-01-13T01:42:39;2.92;;;0.70;;
31990;SDS011;18508;49.386;8.370;2023-01-13T01:45:28;2.95;;;1.23;;
31990;SDS011;18508;49.386;8.370;2023-01-13T01:47:57;1.42;;;0.77;;
31990;SDS011;18508;49.386;8.370;2023-01-13T01:50:30;3.70;;;0.90;;
31990;SDS011;18508;49.386;8.370;2023-01-13T01:53:00;4.00;;;0.80;;
31990;SDS011;18508;49.386;8.370;2023-01-13T01:55:33;2.50;;;0.70;;
31990;SDS011;18508;49.386;8.370;2023-01-13T01:58:06;2.00;;;0.55;;
31990;SDS011;18508;49.386;8.370;2023-01-13T02:03:08;3.80;;;0.98;;
31990;SDS011;18508;49.386;8.370;2023-01-13T02:05:40;1.15;;;0.60;;
31990;SDS011;18508;49.386;8.370;2023-01-13T02:08:12;0.95;;;0.45;;
31990;SDS011;18508;49.386;8.370;2023-01-13T02:10:41;2.45;;;0.77;;
31990;SDS011;18508;49.386;8.370;2023-01-13T02:13:14;1.67;;;0.77;;
31990;SDS011;18508;49.386;8.370;2023-01-13T02:15:48;1.75;;;0.60;;
31990;SDS011;18508;49.386;8.370;2023-01-13T02:18:34;2.25;;;0.60;;
31990;SDS011;18508;49.386;8.370;2023-01-13T02:24:38;2.47;;;0.60;;
31990;SDS011;18508;49.386;8.370;2023-01-13T02:27:30;3.35;;;0.65;;
31990;SDS011;18508;49.386;8.370;2023-01-13T02:30:17;2.47;;;0.50;;
31990;SDS011;18508;49.386;8.370;2023-01-13T02:33:18;2.03;;;0.43;;
31990;SDS011;18508;49.386;8.370;2023-01-13T02:36:00;1.45;;;0.68;;
31990;SDS011;18508;49.386;8.370;2023-01-13T02:38:33;2.35;;;0.50;;
31990;SDS011;18508;49.386;8.370;2023-01-13T02:41:04;0.70;;;0.40;;
31990;SDS011;18508;49.386;8.370;2023-01-13T02:43:57;1.48;;;0.68;;
31990;SDS011;18508;49.386;8.370;2023-01-13T02:46:42;1.42;;;0.40;;
31990;SDS011;18508;49.386;8.370;2023-01-13T02:49:21;3.47;;;0.60;;
31990;SDS011;18508;49.386;8.370;2023-01-13T02:51:55;0.95;;;0.40;;
31990;SDS011;18508;49.386;8.370;2023-01-13T02:54:29;0.77;;;0.40;;
31990;SDS011;18508;49.386;8.370;2023-01-13T02:56:59;3.60;;;0.85;;
31990;SDS011;18508;49.386;8.370;2023-01-13T02:59:31;2.33;;;0.63;;
31990;SDS011;18508;49.386;8.370;2023-01-13T03:02:02;2.42;;;0.50;;
31990;SDS011;18508;49.386;8.370;2023-01-13T03:04:50;3.20;;;0.73;;
31990;SDS011;18508;49.386;8.370;2023-01-13T03:10:21;4.10;;;0.77;;
31990;SDS011;18508;49.386;8.370;2023-01-13T03:13:00;1.98;;;0.38;;
31990;SDS011;18508;49.386;8.370;2023-01-13T03:15:39;0.80;;;0.40;;
31990;SDS011;18508;49.386;8.370;2023-01-13T03:18:22;2.03;;;0.57;;
31990;SDS011;18508;49.386;8.370;2023-01-13T03:21:03;0.88;;;0.40;;
31990;SDS011;18508;49.386;8.370;2023-01-13T03:23:36;3.40;;;0.57;;
31990;SDS011;18508;49.386;8.370;2023-01-13T03:26:15;1.10;;;0.40;;
31990;SDS011;18508;49.386;8.370;2023-01-13T03:28:51;1.58;;;0.60;;
31990;SDS011;18508;49.386;8.370;2023-01-13T03:31:27;1.98;;;0.55;;
31990;SDS011;18508;49.386;8.370;2023-01-13T03:34:02;0.90;;;0.50;;
31990;SDS011;18508;49.386;8.370;2023-01-13T03:36:39;2.25;;;0.52;;
31990;SDS011;18508;49.386;8.370;2023-01-13T03:39:12;1.23;;;0.50;;
31990;SDS011;18508;49.386;8.370;2023-01-13T03:41:51;2.10;;;0.63;;
31990;SDS011;18508;49.386;8.370;2023-01-13T03:44:26;1.58;;;0.52;;
31990;SDS011;18508;49.386;8.370;2023-01-13T03:47:02;1.25;;;0.43;;
31990;SDS011;18508;49.386;8.370;2023-01-13T03:49:40;1.20;;;0.50;;
31990;SDS011;18508;49.386;8.370;2023-01-13T03:52:13;3.33;;;0.40;;
31990;SDS011;18508;49.386;8.370;2023-01-13T03:54:46;3.25;;;0.70;;
31990;SDS011;18508;49.386;8.370;2023-01-13T03:57:18;1.93;;;0.60;;
31990;SDS011;18508;49.386;8.370;2023-01-13T03:59:57;2.75;;;0.57;;
31990;SDS011;18508;49.386;8.370;2023-01-13T04:02:33;2.53;;;0.40;;
31990;SDS011;18508;49.386;8.370;2023-01-13T04:05:09;1.63;;;0.43;;
31990;SDS011;18508;49.386;8.370;2023-01-13T04:07:42;2.55;;;0.70;;
31990;SDS011;18508;49.386;8.370;2023-01-13T04:10:16;1.42;;;0.50;;
31990;SDS011;18508;49.386;8.370;2023-01-13T04:12:49;1.42;;;0.47;;
31990;SDS011;18508;49.386;8.370;2023-01-13T04:15:31;1.37;;;0.40;;
31990;SDS011;18508;49.386;8.370;2023-01-13T04:18:10;3.35;;;0.50;;
31990;SDS011;18508;49.386;8.370;2023-01-13T04:20:41;1.20;;;0.40;;
31990;SDS011;18508;49.386;8.370;2023-01-13T04:23:11;3.67;;;0.47;;
31990;SDS011;18508;49.386;8.370;2023-01-13T04:25:41;1.25;;;0.55;;
31990;SDS011;18508;49.386;8.370;2023-01-13T04:30:43;1.48;;;0.40;;
31990;SDS011;18508;49.386;8.370;2023-01-13T04:33:13;2.22;;;0.50;;
31990;SDS011;18508;49.386;8.370;2023-01-13T04:35:44;1.17;;;0.32;;
31990;SDS011;18508;49.386;8.370;2023-01-13T04:38:13;1.50;;;0.32;;
31990;SDS011;18508;49.386;8.370;2023-01-13T04:40:44;0.63;;;0.38;;
31990;SDS011;18508;49.386;8.370;2023-01-13T04:43:13;1.10;;;0.40;;
31990;SDS011;18508;49.386;8.370;2023-01-13T04:45:44;2.67;;;0.32;;
31990;SDS011;18508;49.386;8.370;2023-01-13T04:48:15;1.75;;;0.55;;
31990;SDS011;18508;49.386;8.370;2023-01-13T04:50:46;2.25;;;0.50;;
31990;SDS011;18508;49.386;8.370;2023-01-13T04:53:14;2.72;;;0.63;;
31990;SDS011;18508;49.386;8.370;2023-01-13T04:55:50;2.22;;;0.55;;
31990;SDS011;18508;49.386;8.370;2023-01-13T04:58:20;1.88;;;0.60;;
31990;SDS011;18508;49.386;8.370;2023-01-13T05:00:48;0.70;;;0.40;;
31990;SDS011;18508;49.386;8.370;2023-01-13T05:03:18;1.65;;;0.40;;
31990;SDS011;18508;49.386;8.370;2023-01-13T05:05:51;1.33;;;0.43;;
31990;SDS011;18508;49.386;8.370;2023-01-13T05:08:20;0.98;;;0.30;;
31990;SDS011;18508;49.386;8.370;2023-01-13T05:10:48;1.58;;;0.45;;
31990;SDS011;18508;49.386;8.370;2023-01-13T05:13:17;0.75;;;0.50;;
31990;SDS011;18508;49.386;8.370;2023-01-13T05:16:00;0.80;;;0.25;;
31990;SDS011;18508;49.386;8.370;2023-01-13T05:18:48;3.13;;;0.70;;
31990;SDS011;18508;49.386;8.370;2023-01-13T05:21:19;1.65;;;0.40;;
31990;SDS011;18508;49.386;8.370;2023-01-13T05:24:09;2.08;;;0.52;;
31990;SDS011;18508;49.386;8.370;2023-01-13T05:26:55;0.75;;;0.40;;
31990;SDS011;18508;49.386;8.370;2023-01-13T05:29:23;2.05;;;0.60;;
31990;SDS011;18508;49.386;8.370;2023-01-13T05:31:53;3.25;;;0.70;;
31990;SDS011;18508;49.386;8.370;2023-01-13T05:34:21;3.10;;;0.40;;
31990;SDS011;18508;49.386;8.370;2023-01-13T05:36:51;1.10;;;0.50;;
31990;SDS011;18508;49.386;8.370;2023-01-13T05:39:19;1.27;;;0.40;;
31990;SDS011;18508;49.386;8.370;2023-01-13T05:41:47;2.53;;;0.60;;
31990;SDS011;18508;49.386;8.370;2023-01-13T05:44:32;2.80;;;0.47;;
31990;SDS011;18508;49.386;8.370;2023-01-13T05:47:02;0.98;;;0.40;;
31990;SDS011;18508;49.386;8.370;2023-01-13T05:49:30;1.63;;;0.35;;
31990;SDS011;18508;49.386;8.370;2023-01-13T05:52:01;1.25;;;0.50;;
31990;SDS011;18508;49.386;8.370;2023-01-13T05:54:30;1.45;;;0.35;;
31990;SDS011;18508;49.386;8.370;2023-01-13T05:56:59;1.08;;;0.32;;
31990;SDS011;18508;49.386;8.370;2023-01-13T05:59:27;1.92;;;0.40;;
31990;SDS011;18508;49.386;8.370;2023-01-13T06:01:55;3.58;;;0.70;;
31990;SDS011;18508;49.386;8.370;2023-01-13T06:04:24;1.13;;;0.35;;
31990;SDS011;18508;49.386;8.370;2023-01-13T06:06:53;0.90;;;0.60;;
31990;SDS011;18508;49.386;8.370;2023-01-13T06:09:23;0.50;;;0.22;;
31990;SDS011;18508;49.386;8.370;2023-01-13T06:11:51;0.35;;;0.30;;
31990;SDS011;18508;49.386;8.370;2023-01-13T06:14:22;3.05;;;0.50;;
31990;SDS011;18508;49.386;8.370;2023-01-13T06:17:05;1.85;;;0.45;;
31990;SDS011;18508;49.386;8.370;2023-01-13T06:19:35;2.22;;;0.40;;
31990;SDS011;18508;49.386;8.370;2023-01-13T06:22:07;1.33;;;0.50;;
31990;SDS011;18508;49.386;8.370;2023-01-13T06:24:42;1.75;;;0.40;;
31990;SDS011;18508;49.386;8.370;2023-01-13T06:27:12;1.90;;;0.30;;
31990;SDS011;18508;49.386;8.370;2023-01-13T06:29:40;2.72;;;0.30;;
31990;SDS011;18508;49.386;8.370;2023-01-13T06:32:11;1.17;;;0.43;;
31990;SDS011;18508;49.386;8.370;2023-01-13T06:34:46;2.33;;;0.40;;
31990;SDS011;18508;49.386;8.370;2023-01-13T06:37:19;1.52;;;0.40;;
31990;SDS011;18508;49.386;8.370;2023-01-13T06:39:53;2.45;;;0.63;;
31990;SDS011;18508;49.386;8.370;2023-01-13T06:42:25;1.13;;;0.47;;
31990;SDS011;18508;49.386;8.370;2023-01-13T06:45:14;1.05;;;0.60;;
31990;SDS011;18508;49.386;8.370;2023-01-13T06:47:43;1.30;;;0.60;;
31990;SDS011;18508;49.386;8.370;2023-01-13T06:50:13;1.55;;;0.50;;
31990;SDS011;18508;49.386;8.370;2023-01-13T06:52:41;1.65;;;0.70;;
31990;SDS011;18508;49.386;8.370;2023-01-13T06:55:11;5.68;;;0.68;;
31990;SDS011;18508;49.386;8.370;2023-01-13T06:57:50;1.98;;;0.60;;
31990;SDS011;18508;49.386;8.370;2023-01-13T07:00:21;5.63;;;1.30;;
31990;SDS011;18508;49.386;8.370;2023-01-13T07:02:51;4.53;;;0.82;;
31990;SDS011;18508;49.386;8.370;2023-01-13T07:05:22;2.67;;;0.60;;
31990;SDS011;18508;49.386;8.370;2023-01-13T07:07:52;1.52;;;0.60;;
31990;SDS011;18508;49.386;8.370;2023-01-13T07:10:23;0.55;;;0.20;;
31990;SDS011;18508;49.386;8.370;2023-01-13T07:12:54;3.43;;;1.40;;
31990;SDS011;18508;49.386;8.370;2023-01-13T07:15:40;2.50;;;0.60;;
31990;SDS011;18508;49.386;8.370;2023-01-13T07:18:09;1.45;;;0.50;;
31990;SDS011;18508;49.386;8.370;2023-01-13T07:20:37;1.40;;;0.30;;
31990;SDS011;18508;49.386;8.370;2023-01-13T07:23:06;0.43;;;0.20;;
31990;SDS011;18508;49.386;8.370;2023-01-13T07:25:36;0.77;;;0.32;;
31990;SDS011;18508;49.386;8.370;2023-01-13T07:28:04;0.70;;;0.28;;
31990;SDS011;18508;49.386;8.370;2023-01-13T07:30:33;0.20;;;0.10;;
31990;SDS011;18508;49.386;8.370;2023-01-13T07:33:01;1.08;;;0.30;;
31990;SDS011;18508;49.386;8.370;2023-01-13T07:35:30;0.98;;;0.40;;
31990;SDS011;18508;49.386;8.370;2023-01-13T07:37:58;2.50;;;0.60;;
31990;SDS011;18508;49.386;8.370;2023-01-13T07:40:26;2.80;;;0.55;;
31990;SDS011;18508;49.386;8.370;2023-01-13T07:42:56;1.98;;;0.28;;
31990;SDS011;18508;49.386;8.370;2023-01-13T07:45:42;0.82;;;0.10;;
31990;SDS011;18508;49.386;8.370;2023-01-13T07:48:12;4.25;;;0.40;;
31990;SDS011;18508;49.386;8.370;2023-01-13T07:50:41;2.80;;;0.50;;
31990;SDS011;18508;49.386;8.370;2023-01-13T07:53:09;3.95;;;0.50;;
31990;SDS011;18508;49.386;8.370;2023-01-13T07:55:39;1.27;;;0.50;;
31990;SDS011;18508;49.386;8.370;2023-01-13T07:58:09;4.60;;;1.20;;
31990;SDS011;18508;49.386;8.370;2023-01-13T08:00:38;2.63;;;0.63;;
31990;SDS011;18508;49.386;8.370;2023-01-13T08:03:07;2.65;;;0.85;;
31990;SDS011;18508;49.386;8.370;2023-01-13T08:05:36;4.70;;;0.75;;
31990;SDS011;18508;49.386;8.370;2023-01-13T08:08:05;4.07;;;0.60;;
31990;SDS011;18508;49.386;8.370;2023-01-13T08:10:33;4.93;;;0.60;;
31990;SDS011;18508;49.386;8.370;2023-01-13T08:13:07;2.83;;;0.40;;
31990;SDS011;18508;49.386;8.370;2023-01-13T08:15:47;4.15;;;0.43;;
31990;SDS011;18508;49.386;8.370;2023-01-13T08:18:19;4.43;;;0.32;;
31990;SDS011;18508;49.386;8.370;2023-01-13T08:20:51;3.70;;;0.73;;
31990;SDS011;18508;49.386;8.370;2023-01-13T08:23:19;2.15;;;0.57;;
31990;SDS011;18508;49.386;8.370;2023-01-13T08:25:49;2.70;;;0.40;;
31990;SDS011;18508;49.386;8.370;2023-01-13T08:28:19;4.47;;;0.65;;
31990;SDS011;18508;49.386;8.370;2023-01-13T08:30:49;1.65;;;0.40;;
31990;SDS011;18508;49.386;8.370;2023-01-13T08:33:19;4.68;;;0.70;;
31990;SDS011;18508;49.386;8.370;2023-01-13T08:35:48;2.03;;;0.40;;
31990;SDS011;18508;49.386;8.370;2023-01-13T08:38:18;3.00;;;0.40;;
31990;SDS011;18508;49.386;8.370;2023-01-13T08:40:46;4.18;;;0.75;;
31990;SDS011;18508;49.386;8.370;2023-01-13T08:43:15;2.83;;;0.82;;
31990;SDS011;18508;49.386;8.370;2023-01-13T08:45:45;4.38;;;0.82;;
31990;SDS011;18508;49.386;8.370;2023-01-13T08:48:23;2.47;;;0.65;;
31990;SDS011;18508;49.386;8.370;2023-01-13T08:51:02;4.03;;;0.60;;
31990;SDS011;18508;49.386;8.370;2023-01-13T08:53:32;5.63;;;0.57;;
31990;SDS011;18508;49.386;8.370;2023-01-13T08:56:01;2.85;;;0.70;;
31990;SDS011;18508;49.386;8.370;2023-01-13T08:58:30;2.10;;;0.52;;
31990;SDS011;18508;49.386;8.370;2023-01-13T09:01:04;6.07;;;0.55;;
31990;SDS011;18508;49.386;8.370;2023-01-13T09:03:34;2.55;;;0.60;;
31990;SDS011;18508;49.386;8.370;2023-01-13T09:06:04;1.98;;;0.30;;
31990;SDS011;18508;49.386;8.370;2023-01-13T09:08:33;5.03;;;0.57;;
31990;SDS011;18508;49.386;8.370;2023-01-13T09:11:02;1.35;;;0.40;;
31990;SDS011;18508;49.386;8.370;2023-01-13T09:13:50;0.77;;;0.35;;
31990;SDS011;18508;49.386;8.370;2023-01-13T09:16:18;1.95;;;0.60;;
31990;SDS011;18508;49.386;8.370;2023-01-13T09:18:48;2.15;;;0.47;;
31990;SDS011;18508;49.386;8.370;2023-01-13T09:21:16;4.00;;;0.50;;
31990;SDS011;18508;49.386;8.370;2023-01-13T09:23:47;3.33;;;0.60;;
31990;SDS011;18508;49.386;8.370;2023-01-13T09:26:17;5.88;;;0.82;;
31990;SDS011;18508;49.386;8.370;2023-01-13T09:28:48;2.58;;;0.50;;
31990;SDS011;18508;49.386;8.370;2023-01-13T09:31:16;1.90;;;0.60;;
31990;SDS011;18508;49.386;8.370;2023-01-13T09:33:46;1.83;;;0.60;;
31990;SDS011;18508;49.386;8.370;2023-01-13T09:36:40;2.45;;;0.70;;
31990;SDS011;18508;49.386;8.370;2023-01-13T09:39:12;2.75;;;0.70;;
31990;SDS011;18508;49.386;8.370;2023-01-13T09:41:42;3.10;;;0.52;;
31990;SDS011;18508;49.386;8.370;2023-01-13T09:44:32;3.17;;;0.80;;
31990;SDS011;18508;49.386;8.370;2023-01-13T09:47:13;2.00;;;0.60;;
31990;SDS011;18508;49.386;8.370;2023-01-13T09:49:47;2.67;;;0.52;;
31990;SDS011;18508;49.386;8.370;2023-01-13T09:52:16;2.42;;;0.60;;
31990;SDS011;18508;49.386;8.370;2023-01-13T09:54:47;2.95;;;0.70;;
31990;SDS011;18508;49.386;8.370;2023-01-13T09:57:19;2.65;;;0.82;;
31990;SDS011;18508;49.386;8.370;2023-01-13T09:59:50;3.08;;;0.75;;
31990;SDS011;18508;49.386;8.370;2023-01-13T10:02:23;2.60;;;0.50;;
31990;SDS011;18508;49.386;8.370;2023-01-13T10:05:05;4.05;;;0.70;;
31990;SDS011;18508;49.386;8.370;2023-01-13T10:07:42;4.30;;;1.00;;
31990;SDS011;18508;49.386;8.370;2023-01-13T10:10:17;3.42;;;0.70;;
31990;SDS011;18508;49.386;8.370;2023-01-13T10:12:54;6.35;;;2.00;;
31990;SDS011;18508;49.386;8.370;2023-01-13T10:15:41;3.22;;;0.95;;
31990;SDS011;18508;49.386;8.370;2023-01-13T10:18:19;4.82;;;1.08;;
31990;SDS011;18508;49.386;8.370;2023-01-13T10:20:55;6.95;;;1.00;;
31990;SDS011;18508;49.386;8.370;2023-01-13T10:23:39;7.88;;;1.23;;
31990;SDS011;18508;49.386;8.370;2023-01-13T10:26:35;5.07;;;0.90;;
31990;SDS011;18508;49.386;8.370;2023-01-13T10:29:18;3.22;;;0.82;;
31990;SDS011;18508;49.386;8.370;2023-01-13T10:31:51;6.32;;;1.30;;
31990;SDS011;18508;49.386;8.370;2023-01-13T10:34:22;3.75;;;0.85;;
31990;SDS011;18508;49.386;8.370;2023-01-13T10:36:56;5.18;;;1.02;;
31990;SDS011;18508;49.386;8.370;2023-01-13T10:39:26;5.85;;;1.00;;
31990;SDS011;18508;49.386;8.370;2023-01-13T10:42:05;7.10;;;1.17;;
31990;SDS011;18508;49.386;8.370;2023-01-13T10:44:48;6.25;;;1.00;;
31990;SDS011;18508;49.386;8.370;2023-01-13T10:47:19;2.60;;;0.80;;
31990;SDS011;18508;49.386;8.370;2023-01-13T10:50:02;4.85;;;0.80;;
31990;SDS011;18508;49.386;8.370;2023-01-13T10:52:56;4.93;;;1.27;;
31990;SDS011;18508;49.386;8.370;2023-01-13T10:55:27;6.95;;;0.98;;
31990;SDS011;18508;49.386;8.370;2023-01-13T10:58:10;3.10;;;0.88;;
31990;SDS011;18508;49.386;8.370;2023-01-13T11:00:40;9.10;;;1.05;;
31990;SDS011;18508;49.386;8.370;2023-01-13T11:03:13;3.63;;;0.98;;
31990;SDS011;18508;49.386;8.370;2023-01-13T11:05:48;3.58;;;0.70;;
31990;SDS011;18508;49.386;8.370;2023-01-13T11:08:19;5.68;;;1.10;;
31990;SDS011;18508;49.386;8.370;2023-01-13T11:10:52;8.50;;;1.30;;
31990;SDS011;18508;49.386;8.370;2023-01-13T11:13:26;7.95;;;1.33;;
31990;SDS011;18508;49.386;8.370;2023-01-13T11:16:00;4.15;;;1.00;;
31990;SDS011;18508;49.386;8.370;2023-01-13T11:18:37;7.30;;;0.90;;
31990;SDS011;18508;49.386;8.370;2023-01-13T11:21:20;7.18;;;1.17;;
31990;SDS011;18508;49.386;8.370;2023-01-13T11:23:54;5.18;;;1.20;;
31990;SDS011;18508;49.386;8.370;2023-01-13T11:26:35;11.77;;;1.40;;
31990;SDS011;18508;49.386;8.370;2023-01-13T11:29:10;8.80;;;1.30;;
31990;SDS011;18508;49.386;8.370;2023-01-13T11:31:45;6.43;;;1.25;;
31990;SDS011;18508;49.386;8.370;2023-01-13T11:34:22;5.43;;;0.90;;
31990;SDS011;18508;49.386;8.370;2023-01-13T11:36:55;7.85;;;1.50;;
31990;SDS011;18508;49.386;8.370;2023-01-13T11:39:29;5.53;;;1.20;;
31990;SDS011;18508;49.386;8.370;2023-01-13T11:42:10;5.70;;;1.05;;
31990;SDS011;18508;49.386;8.370;2023-01-13T11:44:52;4.32;;;1.17;;
31990;SDS011;18508;49.386;8.370;2023-01-13T11:47:29;7.38;;;1.52;;
31990;SDS011;18508;49.386;8.370;2023-01-13T11:49:58;5.95;;;1.50;;
31990;SDS011;18508;49.386;8.370;2023-01-13T11:52:32;4.18;;;1.30;;
31990;SDS011;18508;49.386;8.370;2023-01-13T11:55:20;6.22;;;1.15;;
31990;SDS011;18508;49.386;8.370;2023-01-13T11:58:07;5.07;;;0.95;;
31990;SDS011;18508;49.386;8.370;2023-01-13T12:03:31;4.32;;;1.38;;
31990;SDS011;18508;49.386;8.370;2023-01-13T12:06:10;6.70;;;1.80;;
31990;SDS011;18508;49.386;8.370;2023-01-13T12:08:57;4.95;;;0.70;;
31990;SDS011;18508;49.386;8.370;2023-01-13T12:11:38;3.33;;;0.90;;
31990;SDS011;18508;49.386;8.370;2023-01-13T12:14:34;8.50;;;1.20;;
31990;SDS011;18508;49.386;8.370;2023-01-13T12:17:11;7.38;;;1.23;;
31990;SDS011;18508;49.386;8.370;2023-01-13T12:19:50;4.30;;;0.98;;
31990;SDS011;18508;49.386;8.370;2023-01-13T12:22:19;4.65;;;1.20;;
31990;SDS011;18508;49.386;8.370;2023-01-13T12:24:54;2.28;;;0.80;;
31990;SDS011;18508;49.386;8.370;2023-01-13T12:27:30;2.80;;;0.85;;
31990;SDS011;18508;49.386;8.370;2023-01-13T12:30:15;1.23;;;0.55;;
31990;SDS011;18508;49.386;8.370;2023-01-13T12:32:50;4.43;;;0.63;;
31990;SDS011;18508;49.386;8.370;2023-01-13T12:35:27;4.60;;;0.80;;
31990;SDS011;18508;49.386;8.370;2023-01-13T12:38:06;6.53;;;0.73;;
31990;SDS011;18508;49.386;8.370;2023-01-13T12:40:44;3.55;;;1.13;;
31990;SDS011;18508;49.386;8.370;2023-01-13T12:43:22;2.05;;;0.60;;
31990;SDS011;18508;49.386;8.370;2023-01-13T12:49:04;12.73;;;1.25;;
31990;SDS011;18508;49.386;8.370;2023-01-13T12:51:33;5.53;;;1.00;;
31990;SDS011;18508;49.386;8.370;2023-01-13T12:54:04;6.53;;;1.33;;
31990;SDS011;18508;49.386;8.370;2023-01-13T12:57:03;5.95;;;1.30;;
31990;SDS011;18508;49.386;8.370;2023-01-13T13:00:01;7.05;;;1.08;;
31990;SDS011;18508;49.386;8.370;2023-01-13T13:02:40;4.38;;;1.17;;
31990;SDS011;18508;49.386;8.370;2023-01-13T13:10:36;2.90;;;1.00;;
31990;SDS011;18508;49.386;8.370;2023-01-13T13:22:20;7.25;;;1.40;;
31990;SDS011;18508;49.386;8.370;2023-01-13T13:25:20;4.97;;;1.70;;
31990;SDS011;18508;49.386;8.370;2023-01-13T13:27:54;4.28;;;1.05;;
31990;SDS011;18508;49.386;8.370;2023-01-13T13:30:47;7.38;;;2.13;;
31990;SDS011;18508;49.386;8.370;2023-01-13T13:33:35;8.48;;;2.53;;
31990;SDS011;18508;49.386;8.370;2023-01-13T13:36:14;9.90;;;1.23;;
31990;SDS011;18508;49.386;8.370;2023-01-13T13:38:57;6.35;;;1.17;;
31990;SDS011;18508;49.386;8.370;2023-01-13T13:41:59;6.78;;;1.02;;
31990;SDS011;18508;49.386;8.370;2023-01-13T13:44:53;4.65;;;0.95;;
31990;SDS011;18508;49.386;8.370;2023-01-13T13:47:45;3.88;;;0.80;;
31990;SDS011;18508;49.386;8.370;2023-01-13T13:50:14;3.60;;;1.30;;
31990;SDS011;18508;49.386;8.370;2023-01-13T13:52:48;5.07;;;1.23;;
31990;SDS011;18508;49.386;8.370;2023-01-13T13:55:23;3.88;;;0.80;;
31990;SDS011;18508;49.386;8.370;2023-01-13T13:57:53;3.22;;;0.65;;
31990;SDS011;18508;49.386;8.370;2023-01-13T14:00:24;7.22;;;0.57;;
31990;SDS011;18508;49.386;8.370;2023-01-13T14:02:56;5.50;;;0.90;;
31990;SDS011;18508;49.386;8.370;2023-01-13T14:05:29;1.42;;;0.52;;
31990;SDS011;18508;49.386;8.370;2023-01-13T14:07:58;3.28;;;0.85;;
31990;SDS011;18508;49.386;8.370;2023-01-13T14:10:33;4.65;;;0.93;;
31990;SDS011;18508;49.386;8.370;2023-01-13T14:13:11;4.05;;;0.70;;
31990;SDS011;18508;49.386;8.370;2023-01-13T14:15:40;4.28;;;0.90;;
31990;SDS011;18508;49.386;8.370;2023-01-13T14:18:13;7.40;;;1.40;;
31990;SDS011;18508;49.386;8.370;2023-01-13T14:20:42;5.50;;;1.08;;
31990;SDS011;18508;49.386;8.370;2023-01-13T14:23:14;5.55;;;1.13;;
31990;SDS011;18508;49.386;8.370;2023-01-13T14:25:45;5.72;;;1.02;;
31990;SDS011;18508;49.386;8.370;2023-01-13T14:28:20;10.32;;;1.60;;
31990;SDS011;18508;49.386;8.370;2023-01-13T14:30:52;6.80;;;1.60;;
31990;SDS011;18508;49.386;8.370;2023-01-13T14:33:25;9.38;;;1.90;;
31990;SDS011;18508;49.386;8.370;2023-01-13T14:36:10;5.95;;;1.55;;
31990;SDS011;18508;49.386;8.370;2023-01-13T14:38:42;7.72;;;1.88;;
31990;SDS011;18508;49.386;8.370;2023-01-13T14:41:17;5.07;;;1.15;;
31990;SDS011;18508;49.386;8.370;2023-01-13T14:43:48;6.07;;;1.20;;
31990;SDS011;18508;49.386;8.370;2023-01-13T14:46:19;5.22;;;1.48;;
31990;SDS011;18508;49.386;8.370;2023-01-13T14:48:58;8.23;;;1.42;;
31990;SDS011;18508;49.386;8.370;2023-01-13T14:51:28;5.75;;;1.95;;
31990;SDS011;18508;49.386;8.370;2023-01-13T14:53:57;9.07;;;1.02;;
31990;SDS011;18508;49.386;8.370;2023-01-13T14:56:35;7.25;;;1.83;;
31990;SDS011;18508;49.386;8.370;2023-01-13T15:05:28;7.70;;;2.28;;
31990;SDS011;18508;49.386;8.370;2023-01-13T15:08:02;4.35;;;1.52;;
31990;SDS011;18508;49.386;8.370;2023-01-13T15:10:36;7.18;;;1.25;;
31990;SDS011;18508;49.386;8.370;2023-01-13T15:13:22;7.93;;;1.55;;
31990;SDS011;18508;49.386;8.370;2023-01-13T15:15:54;9.30;;;1.80;;
31990;SDS011;18508;49.386;8.370;2023-01-13T15:18:24;5.10;;;1.10;;
31990;SDS011;18508;49.386;8.370;2023-01-13T15:20:54;9.32;;;2.63;;
31990;SDS011;18508;49.386;8.370;2023-01-13T15:23:23;8.90;;;1.65;;
31990;SDS011;18508;49.386;8.370;2023-01-13T15:25:52;5.35;;;1.15;;
31990;SDS011;18508;49.386;8.370;2023-01-13T15:28:23;8.48;;;1.92;;
31990;SDS011;18508;49.386;8.370;2023-01-13T15:30:57;8.63;;;1.10;;
31990;SDS011;18508;49.386;8.370;2023-01-13T15:33:27;4.05;;;1.50;;
31990;SDS011;18508;49.386;8.370;2023-01-13T15:35:57;5.75;;;1.35;;
31990;SDS011;18508;49.386;8.370;2023-01-13T15:38:27;6.15;;;1.02;;
31990;SDS011;18508;49.386;8.370;2023-01-13T15:40:55;6.53;;;1.02;;
31990;SDS011;18508;49.386;8.370;2023-01-13T15:43:24;12.25;;;1.35;;
31990;SDS011;18508;49.386;8.370;2023-01-13T15:46:10;5.03;;;1.27;;
31990;SDS011;18508;49.386;8.370;2023-01-13T15:49:05;7.28;;;1.20;;
31990;SDS011;18508;49.386;8.370;2023-01-13T15:51:39;5.70;;;1.42;;
31990;SDS011;18508;49.386;8.370;2023-01-13T15:54:08;5.72;;;1.20;;
31990;SDS011;18508;49.386;8.370;2023-01-13T15:56:40;7.15;;;1.58;;
31990;SDS011;18508;49.386;8.370;2023-01-13T15:59:11;7.43;;;1.48;;
31990;SDS011;18508;49.386;8.370;2023-01-13T16:01:43;7.38;;;1.20;;
31990;SDS011;18508;49.386;8.370;2023-01-13T16:04:14;8.23;;;1.42;;
31990;SDS011;18508;49.386;8.370;2023-01-13T16:06:44;6.97;;;1.65;;
31990;SDS011;18508;49.386;8.370;2023-01-13T16:09:13;6.28;;;1.45;;
31990;SDS011;18508;49.386;8.370;2023-01-13T16:11:45;4.88;;;1.17;;